Time;durP1;ratioP1;P1;durP2;ratioP2;P2;SDS_P1;SDS_P2;PMS_P1;PMS_P2;Temp;Humidity;BMP_temperature;BMP_pressure;BME280_temperature;BME280_humidity;BME280_pressure;Samples;Min_cycle;Max_cycle;Signal;HPM_P1;HPM_P2
2023/03/13 00:00:55;;;;;;;6.00;4.53;;;;;;;4.47;38.88;95132.56;4990734;28;20220;-63
2023/03/13 00:03:21;;;;;;;4.80;4.30;;;;;;;4.53;39.01;95144.31;4990791;28;20232;-64
2023/03/13 00:05:46;;;;;;;5.20;4.43;;;;;;;4.44;39.23;95140.63;4989895;28;20820;-64
2023/03/13 00:08:11;;;;;;;4.43;4.10;;;;;;;4.37;38.91;95129.78;4989762;28;20227;-64
2023/03/13 00:10:40;;;;;;;4.60;4.20;;;;;;;4.39;39.04;95143.53;4990472;28;20196;-64
2023/03/13 00:13:09;;;;;;;4.57;4.17;;;;;;;4.47;39.17;95139.56;4986549;28;20230;-64
2023/03/13 00:15:34;;;;;;;5.00;4.50;;;;;;;4.44;39.37;95140.63;4989297;28;20215;-63
2023/03/13 00:18:00;;;;;;;4.90;4.40;;;;;;;4.22;39.19;95143.09;4990581;28;20289;-64
2023/03/13 00:20:25;;;;;;;4.27;3.87;;;;;;;4.38;39.13;95144.50;4989174;28;20226;-63
2023/03/13 00:22:51;;;;;;;5.07;4.33;;;;;;;4.27;39.31;95144.41;4989669;28;20179;-63
2023/03/13 00:25:16;;;;;;;4.90;4.50;;;;;;;4.42;38.99;95151.13;4990480;28;20266;-63
2023/03/13 00:27:42;;;;;;;4.57;4.10;;;;;;;4.34;39.02;95148.25;4989664;28;20255;-63
2023/03/13 00:30:08;;;;;;;4.90;4.50;;;;;;;4.20;39.37;95158.81;4986985;28;20303;-63
2023/03/13 00:32:40;;;;;;;5.07;4.57;;;;;;;4.15;39.57;95151.34;4987933;28;20275;-63
2023/03/13 00:35:05;;;;;;;4.53;4.13;;;;;;;4.20;39.25;95159.66;4987309;28;20250;-63
2023/03/13 00:37:31;;;;;;;4.50;4.10;;;;;;;4.21;39.25;95152.66;4989472;28;20218;-67
2023/03/13 00:39:56;;;;;;;5.00;4.50;;;;;;;4.03;39.76;95153.97;4986677;28;20215;-66
2023/03/13 00:42:22;;;;;;;5.07;4.57;;;;;;;4.15;39.50;95155.72;4990180;28;20595;-65
2023/03/13 00:44:47;;;;;;;4.53;4.13;;;;;;;4.18;39.47;95153.72;4987490;28;20215;-66
2023/03/13 00:47:12;;;;;;;4.60;4.20;;;;;;;4.21;39.46;95155.28;4989048;28;20223;-66
2023/03/13 00:49:38;;;;;;;4.97;4.47;;;;;;;4.19;39.63;95159.75;4990208;28;20196;-66
2023/03/13 00:52:03;;;;;;;4.53;4.13;;;;;;;3.86;40.11;95150.78;4990822;28;20318;-66
2023/03/13 00:54:29;;;;;;;4.60;4.20;;;;;;;3.89;40.06;95147.97;4988536;28;20220;-66
2023/03/13 00:56:54;;;;;;;5.27;4.77;;;;;;;4.06;40.11;95149.38;4984379;28;20223;-66
2023/03/13 00:59:20;;;;;;;4.50;4.10;;;;;;;4.09;39.89;95148.31;4989772;28;20234;-69
2023/03/13 01:01:46;;;;;;;4.90;4.43;;;;;;;4.10;39.97;95150.00;4987510;28;20195;-65
2023/03/13 01:04:12;;;;;;;5.00;4.50;;;;;;;4.06;39.73;95151.97;4989903;28;20227;-66
2023/03/13 01:06:41;;;;;;;4.77;4.30;;;;;;;4.15;39.61;95158.31;4988764;28;20306;-65
2023/03/13 01:09:09;;;;;;;4.60;4.20;;;;;;;4.08;39.51;95151.88;4988802;28;20645;-64
2023/03/13 01:11:37;;;;;;;5.20;4.50;;;;;;;4.13;39.64;95153.22;4986520;28;20250;-67
2023/03/13 01:14:06;;;;;;;4.60;4.20;;;;;;;4.12;39.40;95148.13;4987556;28;20219;-65
2023/03/13 01:16:33;;;;;;;4.70;4.30;;;;;;;4.16;39.58;95147.78;4989445;28;20250;-65
2023/03/13 01:19:01;;;;;;;5.17;4.67;;;;;;;4.07;39.92;95150.22;4988700;28;20223;-68
2023/03/13 01:21:27;;;;;;;4.33;3.93;;;;;;;4.15;39.49;95146.13;4985401;28;20226;-66
2023/03/13 01:23:53;;;;;;;4.30;3.90;;;;;;;4.09;39.85;95145.72;4989222;28;20302;-66
2023/03/13 01:26:20;;;;;;;5.63;4.33;;;;;;;4.02;39.96;95142.75;4989638;28;20294;-66
2023/03/13 01:28:46;;;;;;;4.43;4.03;;;;;;;3.86;40.76;95147.38;4989177;28;20254;-65
2023/03/13 01:31:12;;;;;;;5.37;4.87;;;;;;;3.88;40.58;95154.13;4990115;28;20221;-66
2023/03/13 01:33:38;;;;;;;5.23;4.20;;;;;;;3.93;40.02;95154.63;4987427;28;20224;-66
2023/03/13 01:36:04;;;;;;;4.30;3.93;;;;;;;3.92;40.31;95157.34;4988196;28;20223;-69
2023/03/13 01:38:29;;;;;;;4.60;4.20;;;;;;;3.95;40.63;95163.16;4985988;28;20250;-67
2023/03/13 01:40:54;;;;;;;5.63;4.50;;;;;;;3.90;40.47;95157.47;4988102;28;20203;-67
2023/03/13 01:43:22;;;;;;;5.37;4.87;;;;;;;3.88;40.24;95164.53;4990410;28;20196;-66
2023/03/13 01:45:56;;;;;;;4.60;4.20;;;;;;;3.98;40.19;95168.16;4988025;28;20231;-67
2023/03/13 01:48:37;;;;;;;4.20;3.80;;;;;;;3.92;39.87;95171.16;5004847;28;20227;-67
2023/03/13 01:51:08;;;;;;;4.63;4.20;;;;;;;3.93;40.14;95167.66;4987221;28;20259;-67
2023/03/13 01:53:35;;;;;;;6.30;4.63;;;;;;;3.86;40.62;95173.38;4988065;28;20228;-67
2023/03/13 01:56:05;;;;;;;4.43;4.10;;;;;;;3.69;41.19;95167.59;4987092;28;20227;-66
2023/03/13 01:58:31;;;;;;;4.30;3.97;;;;;;;3.66;41.31;95172.16;4973530;28;20207;-66
2023/03/13 02:00:57;;;;;;;4.90;4.50;;;;;;;3.54;41.50;95179.03;4988260;28;20227;-67
2023/03/13 02:03:26;;;;;;;5.03;4.53;;;;;;;3.50;41.71;95175.81;4986055;28;20220;-67
2023/03/13 02:05:52;;;;;;;4.93;4.43;;;;;;;3.63;41.75;95170.59;4992007;28;20242;-67
2023/03/13 02:08:28;;;;;;;5.03;4.53;;;;;;;3.70;41.35;95169.25;4991126;28;20237;-67
2023/03/13 02:11:03;;;;;;;4.93;4.40;;;;;;;3.71;41.78;95170.06;4990453;28;20301;-67
2023/03/13 02:13:29;;;;;;;6.63;4.83;;;;;;;3.75;41.84;95171.53;4985270;28;20192;-67
2023/03/13 02:15:55;;;;;;;6.00;4.70;;;;;;;3.59;41.99;95165.72;4992977;28;20219;-67
2023/03/13 02:18:20;;;;;;;5.07;3.97;;;;;;;3.63;41.76;95173.19;4990061;28;20231;-67
2023/03/13 02:20:50;;;;;;;5.50;4.60;;;;;;;3.71;41.73;95180.47;4986986;28;20219;-67
2023/03/13 02:23:23;;;;;;;5.27;4.73;;;;;;;3.62;42.20;95183.72;4976158;28;20243;-67
2023/03/13 02:25:52;;;;;;;5.00;4.50;;;;;;;3.49;42.15;95192.34;4992673;28;20315;-67
2023/03/13 02:28:26;;;;;;;4.80;4.27;;;;;;;3.50;42.09;95186.22;4987474;28;20252;-67
2023/03/13 02:30:55;;;;;;;5.70;4.60;;;;;;;3.56;42.28;95191.94;4989536;28;20226;-66
2023/03/13 02:33:25;;;;;;;5.00;4.47;;;;;;;3.56;42.68;95202.34;4990753;28;20228;-66
2023/03/13 02:35:52;;;;;;;4.83;4.40;;;;;;;3.50;42.54;95200.97;4987866;28;20216;-67
2023/03/13 02:38:23;;;;;;;6.07;5.03;;;;;;;3.47;42.57;95204.59;4991794;28;20226;-66
2023/03/13 02:40:50;;;;;;;7.93;5.83;;;;;;;3.37;42.82;95210.53;4990541;28;20202;-66
2023/03/13 02:43:23;;;;;;;8.00;5.67;;;;;;;3.34;43.22;95224.56;4992442;28;20203;-66
2023/03/13 02:46:07;;;;;;;6.40;5.77;;;;;;;3.21;43.84;95228.94;4987603;28;20223;-65
2023/03/13 02:48:36;;;;;;;5.27;4.77;;;;;;;3.21;43.63;95226.34;4984342;28;20227;-66
2023/03/13 02:51:13;;;;;;;8.03;5.47;;;;;;;3.16;43.80;95236.22;4992038;28;20630;-66
2023/03/13 02:53:39;;;;;;;7.83;5.27;;;;;;;3.10;44.29;95237.41;4987392;28;20222;-67
2023/03/13 02:56:06;;;;;;;6.97;5.67;;;;;;;3.03;44.26;95233.59;4991502;28;20219;-67
2023/03/13 02:58:39;;;;;;;6.90;6.20;;;;;;;3.07;44.71;95233.28;4988552;28;20286;-67
2023/03/13 03:01:06;;;;;;;8.60;7.00;;;;;;;3.11;44.47;95235.69;4990025;28;20212;-67
2023/03/13 03:03:34;;;;;;;7.37;6.63;;;;;;;3.09;44.84;95238.38;4991252;28;20751;-67
2023/03/13 03:06:00;;;;;;;7.90;6.83;;;;;;;2.94;45.55;95235.03;4991056;28;20226;-67
2023/03/13 03:08:26;;;;;;;8.00;7.20;;;;;;;2.96;45.71;95234.91;4987914;28;20594;-67
2023/03/13 03:10:52;;;;;;;7.83;6.87;;;;;;;2.92;45.57;95236.88;4989914;28;20191;-67
2023/03/13 03:13:17;;;;;;;10.10;7.30;;;;;;;2.80;46.26;95230.69;4990774;28;20183;-67
2023/03/13 03:15:42;;;;;;;10.17;6.80;;;;;;;2.84;45.95;95236.53;4989094;28;20228;-67
2023/03/13 03:18:08;;;;;;;9.17;8.27;;;;;;;2.87;45.91;95242.38;4986257;28;20231;-67
2023/03/13 03:20:33;;;;;;;10.27;8.43;;;;;;;2.76;46.58;95247.44;4988977;28;20219;-67
2023/03/13 03:22:59;;;;;;;11.77;9.40;;;;;;;2.62;47.01;95256.09;4990536;28;20254;-67
2023/03/13 03:25:24;;;;;;;11.03;9.93;;;;;;;2.59;47.28;95256.31;4985755;28;20279;-67
2023/03/13 03:27:50;;;;;;;12.47;11.27;;;;;;;2.71;47.26;95277.22;4991883;28;20215;-67
2023/03/13 03:30:15;;;;;;;13.13;11.73;;;;;;;2.74;47.58;95275.25;4987194;28;20307;-67
2023/03/13 03:32:41;;;;;;;11.97;10.67;;;;;;;2.58;48.31;95277.97;4989529;28;20258;-67
2023/03/13 03:35:06;;;;;;;11.60;10.40;;;;;;;2.70;48.02;95280.72;4989811;28;20231;-67
2023/03/13 03:37:32;;;;;;;12.20;10.70;;;;;;;2.73;48.15;95281.38;4992088;28;20190;-67
2023/03/13 03:39:57;;;;;;;13.60;11.33;;;;;;;2.77;47.85;95280.25;4991533;28;20219;-65
2023/03/13 03:42:23;;;;;;;12.43;10.77;;;;;;;2.64;47.98;95276.75;4983394;28;20223;-67
2023/03/13 03:44:48;;;;;;;13.30;11.90;;;;;;;2.48;48.67;95283.84;4988618;28;20223;-66
2023/03/13 03:47:13;;;;;;;14.97;12.40;;;;;;;2.48;48.88;95297.66;4989867;28;20285;-67
2023/03/13 03:49:39;;;;;;;17.07;11.63;;;;;;;2.52;48.44;95312.13;4990236;28;20187;-67
2023/03/13 03:52:05;;;;;;;13.73;12.00;;;;;;;2.52;48.43;95313.88;4990113;28;20315;-67
2023/03/13 03:54:30;;;;;;;14.57;12.30;;;;;;;2.46;48.85;95317.69;4991573;28;20223;-67
2023/03/13 03:56:56;;;;;;;13.70;12.17;;;;;;;2.54;48.54;95312.88;4988911;28;20265;-67
2023/03/13 03:59:21;;;;;;;14.57;12.13;;;;;;;2.38;48.76;95310.38;4988355;28;20266;-67
2023/03/13 04:01:47;;;;;;;15.73;13.20;;;;;;;2.41;49.10;95319.75;4989987;28;20198;-67
2023/03/13 04:04:12;;;;;;;14.50;12.37;;;;;;;2.48;48.84;95317.59;4990814;28;20187;-66
2023/03/13 04:06:37;;;;;;;12.87;11.17;;;;;;;2.35;48.81;95322.69;4990852;28;20246;-67
2023/03/13 04:09:03;;;;;;;14.73;11.70;;;;;;;2.28;49.13;95327.44;4986422;28;20226;-66
2023/03/13 04:11:29;;;;;;;15.17;11.03;;;;;;;2.27;49.28;95337.91;4990814;28;20289;-66
2023/03/13 04:13:54;;;;;;;13.00;11.60;;;;;;;2.19;49.16;95338.38;4988443;28;20203;-66
2023/03/13 04:16:20;;;;;;;12.17;10.97;;;;;;;2.26;49.02;95346.63;4993788;28;20191;-66
2023/03/13 04:18:45;;;;;;;11.93;10.70;;;;;;;2.17;49.32;95345.44;4989713;28;20234;-67
2023/03/13 04:21:10;;;;;;;14.03;11.03;;;;;;;2.18;49.55;95342.72;4980162;28;20226;-67
2023/03/13 04:23:36;;;;;;;13.10;11.10;;;;;;;2.08;49.77;95345.97;4988821;28;20224;-67
2023/03/13 04:26:02;;;;;;;13.23;11.20;;;;;;;2.08;49.48;95359.78;4985955;28;20216;-67
2023/03/13 04:28:27;;;;;;;11.73;10.10;;;;;;;2.05;49.89;95357.38;4988658;28;20315;-66
2023/03/13 04:30:56;;;;;;;12.00;10.60;;;;;;;2.14;49.83;95351.63;4984964;28;20239;-67
2023/03/13 04:33:22;;;;;;;16.80;12.50;;;;;;;1.97;50.08;95363.00;4989029;28;20596;-67
2023/03/13 04:35:48;;;;;;;11.83;10.63;;;;;;;2.09;50.21;95364.06;4985433;28;20227;-67
2023/03/13 04:38:13;;;;;;;11.80;10.50;;;;;;;2.18;49.45;95373.03;4982629;28;20374;-67
2023/03/13 04:40:39;;;;;;;12.40;11.10;;;;;;;2.26;49.40;95372.56;4988928;28;20240;-67
2023/03/13 04:43:04;;;;;;;13.90;11.40;;;;;;;2.28;49.48;95388.91;4969445;28;20231;-67
2023/03/13 04:45:30;;;;;;;11.47;9.73;;;;;;;2.16;49.33;95380.06;4990020;28;20223;-66
2023/03/13 04:47:55;;;;;;;12.80;10.47;;;;;;;2.07;49.60;95388.41;4986990;28;20227;-67
2023/03/13 04:50:20;;;;;;;10.93;9.83;;;;;;;2.17;49.49;95389.53;4987257;28;20212;-66
2023/03/13 04:52:46;;;;;;;14.03;9.90;;;;;;;2.12;49.62;95388.97;4981755;28;20227;-67
2023/03/13 04:55:11;;;;;;;11.40;10.20;;;;;;;2.13;49.70;95396.66;4989807;28;20191;-66
2023/03/13 04:57:37;;;;;;;12.87;10.30;;;;;;;2.16;49.97;95400.81;4989800;28;20219;-66
2023/03/13 05:00:06;;;;;;;13.47;10.43;;;;;;;2.17;49.84;95385.19;4971222;28;20232;-66
2023/03/13 05:02:32;;;;;;;12.03;9.90;;;;;;;2.21;49.69;95397.03;4988502;28;20254;-67
2023/03/13 05:04:58;;;;;;;15.30;9.80;;;;;;;2.29;49.21;95400.94;4989630;28;20195;-65
2023/03/13 05:07:23;;;;;;;14.93;10.23;;;;;;;2.28;49.51;95401.88;4990120;28;20191;-66
2023/03/13 05:09:49;;;;;;;15.67;10.57;;;;;;;2.33;49.67;95398.06;4988267;28;20227;-66
2023/03/13 05:12:14;;;;;;;16.33;9.87;;;;;;;2.32;49.33;95395.56;4989469;28;20227;-66
2023/03/13 05:14:40;;;;;;;15.37;10.60;;;;;;;2.42;49.51;95401.84;4987393;28;20227;-66
2023/03/13 05:17:05;;;;;;;15.10;10.73;;;;;;;2.27;49.85;95402.78;4988444;28;20243;-67
2023/03/13 05:19:30;;;;;;;14.20;10.10;;;;;;;2.33;49.42;95410.22;4989680;28;20242;-66
2023/03/13 05:21:56;;;;;;;15.53;9.77;;;;;;;2.26;49.44;95420.09;4987717;28;20211;-67
2023/03/13 05:24:21;;;;;;;12.53;9.53;;;;;;;2.37;48.92;95409.91;4989019;28;20305;-67
2023/03/13 05:26:47;;;;;;;16.07;10.57;;;;;;;2.37;49.41;95422.06;4981955;28;20270;-67
2023/03/13 05:29:12;;;;;;;17.93;10.50;;;;;;;2.40;49.42;95427.06;4986679;28;20257;-69
2023/03/13 05:31:37;;;;;;;13.67;9.83;;;;;;;2.35;49.50;95429.09;4990426;28;20223;-67
2023/03/13 05:34:03;;;;;;;12.47;9.57;;;;;;;2.43;49.34;95425.13;4979774;28;20230;-66
2023/03/13 05:36:28;;;;;;;17.40;10.17;;;;;;;2.50;49.18;95430.78;4988664;28;20231;-69
2023/03/13 05:38:54;;;;;;;13.83;9.77;;;;;;;2.57;48.46;95421.69;4990155;28;20769;-66
2023/03/13 05:41:19;;;;;;;13.33;9.20;;;;;;;2.63;48.34;95425.69;4988415;28;20215;-67
2023/03/13 05:43:45;;;;;;;13.13;9.70;;;;;;;2.51;48.91;95434.19;4993014;28;20179;-68
2023/03/13 05:46:10;;;;;;;14.17;10.10;;;;;;;2.61;48.88;95435.31;4987688;28;20222;-69
2023/03/13 05:48:36;;;;;;;13.33;9.27;;;;;;;2.74;48.83;95432.81;4991895;28;20216;-66
2023/03/13 05:51:01;;;;;;;15.47;9.57;;;;;;;2.63;48.87;95441.25;4988859;28;20258;-64
2023/03/13 05:53:26;;;;;;;15.00;10.67;;;;;;;2.71;48.67;95438.19;4991578;28;20227;-69
2023/03/13 05:55:52;;;;;;;13.70;9.57;;;;;;;2.88;48.00;95440.59;4991938;28;20235;-67
2023/03/13 05:58:17;;;;;;;11.00;9.40;;;;;;;2.80;48.19;95445.41;4992324;28;20282;-68
2023/03/13 06:00:43;;;;;;;11.37;9.07;;;;;;;2.58;48.13;95451.91;4991671;28;20287;-63
2023/03/13 06:03:08;;;;;;;8.73;7.87;;;;;;;2.54;48.40;95447.00;4987985;28;20242;-67
2023/03/13 06:05:34;;;;;;;10.53;8.80;;;;;;;2.54;48.24;95447.00;4989133;28;20227;-65
2023/03/13 06:08:01;;;;;;;9.13;8.23;;;;;;;2.76;47.46;95454.34;4990720;28;20754;-65
2023/03/13 06:10:27;;;;;;;9.13;8.17;;;;;;;2.54;47.51;95458.25;4989937;28;20215;-67
2023/03/13 06:12:55;;;;;;;10.10;8.07;;;;;;;2.67;46.98;95465.25;4992066;28;20227;-67
2023/03/13 06:15:20;;;;;;;10.03;7.60;;;;;;;2.95;46.54;95457.47;4990149;28;20321;-67
2023/03/13 06:17:46;;;;;;;8.40;7.57;;;;;;;3.03;46.31;95450.03;4991080;28;20239;-66
2023/03/13 06:20:12;;;;;;;8.43;7.73;;;;;;;2.83;46.84;95453.88;4988439;28;20224;-67
2023/03/13 06:22:37;;;;;;;8.77;7.80;;;;;;;2.84;46.05;95455.53;4985570;28;20194;-67
2023/03/13 06:25:03;;;;;;;11.00;8.33;;;;;;;2.70;46.92;95452.09;4988848;28;20210;-67
2023/03/13 06:27:28;;;;;;;9.33;8.43;;;;;;;2.83;46.53;95456.47;4983708;28;20224;-67
2023/03/13 06:29:54;;;;;;;8.73;7.93;;;;;;;3.02;46.19;95457.91;4986793;28;20318;-64
2023/03/13 06:32:19;;;;;;;9.57;7.57;;;;;;;2.75;46.10;95463.03;4988844;28;20231;-65
2023/03/13 06:34:45;;;;;;;8.97;8.00;;;;;;;2.94;45.67;95466.19;4986647;28;20211;-67
2023/03/13 06:37:10;;;;;;;8.63;7.77;;;;;;;3.08;45.40;95450.59;4988812;28;20690;-68
2023/03/13 06:39:36;;;;;;;9.07;7.93;;;;;;;3.22;44.52;95439.31;4988173;28;20223;-69
2023/03/13 06:42:01;;;;;;;10.13;7.43;;;;;;;3.17;44.42;95428.38;4989018;28;20242;-66
2023/03/13 06:44:27;;;;;;;9.10;8.20;;;;;;;3.37;44.13;95426.28;4975952;28;20223;-66
2023/03/13 06:46:52;;;;;;;8.47;7.57;;;;;;;3.61;43.59;95435.13;4988278;28;20199;-64
2023/03/13 06:49:18;;;;;;;9.53;7.60;;;;;;;3.43;43.94;95416.34;4989640;28;20214;-65
2023/03/13 06:51:43;;;;;;;9.27;8.20;;;;;;;3.55;43.62;95435.50;4988582;28;20238;-66
2023/03/13 06:54:09;;;;;;;10.13;7.60;;;;;;;3.56;43.65;95431.97;4990724;28;20219;-66
2023/03/13 06:56:34;;;;;;;9.53;8.53;;;;;;;3.55;43.33;95440.69;4992598;28;20230;-66
2023/03/13 06:59:00;;;;;;;8.33;7.53;;;;;;;3.67;43.49;95437.31;4990253;28;20262;-66
2023/03/13 07:01:25;;;;;;;10.63;7.80;;;;;;;3.76;43.27;95434.09;4991001;28;20192;-66
2023/03/13 07:03:50;;;;;;;9.53;8.23;;;;;;;3.83;42.93;95429.34;4996195;28;20258;-66
2023/03/13 07:06:17;;;;;;;9.40;7.97;;;;;;;3.95;43.15;95432.91;4991346;28;20231;-66
2023/03/13 07:08:43;;;;;;;9.33;8.47;;;;;;;3.92;43.14;95423.53;4989686;28;20235;-65
2023/03/13 07:11:11;;;;;;;12.13;9.43;;;;;;;3.98;42.96;95430.94;4990322;28;20211;-65
2023/03/13 07:13:36;;;;;;;11.87;10.40;;;;;;;4.12;42.94;95432.63;4995130;28;20285;-65
2023/03/13 07:16:07;;;;;;;14.37;11.60;;;;;;;4.20;43.47;95434.72;4993520;28;20315;-65
2023/03/13 07:18:33;;;;;;;14.80;13.30;;;;;;;3.98;44.20;95436.16;4992295;28;20307;-65
2023/03/13 07:21:03;;;;;;;14.40;12.63;;;;;;;3.96;44.52;95438.00;4988949;28;20306;-66
2023/03/13 07:23:30;;;;;;;13.40;12.00;;;;;;;3.95;44.41;95425.91;4993076;28;20219;-66
2023/03/13 07:25:57;;;;;;;13.60;12.20;;;;;;;3.91;44.67;95421.88;4989759;28;20250;-66
2023/03/13 07:28:24;;;;;;;13.17;11.70;;;;;;;3.96;44.07;95419.81;4995936;28;20249;-66
2023/03/13 07:30:49;;;;;;;15.20;11.63;;;;;;;3.95;43.98;95422.50;4994406;28;20237;-67
2023/03/13 07:33:15;;;;;;;15.43;12.83;;;;;;;4.16;43.96;95422.84;4989279;28;20223;-66
2023/03/13 07:35:47;;;;;;;16.40;13.00;;;;;;;4.59;43.23;95427.72;4989643;28;20215;-68
2023/03/13 07:38:12;;;;;;;15.27;13.67;;;;;;;4.35;44.26;95420.66;4988206;28;20223;-68
2023/03/13 07:40:37;;;;;;;15.50;13.87;;;;;;;4.48;44.22;95430.25;4990969;28;20202;-69
2023/03/13 07:43:03;;;;;;;16.23;13.07;;;;;;;4.62;43.62;95428.38;4991864;28;20219;-70
2023/03/13 07:45:28;;;;;;;18.10;13.20;;;;;;;4.62;43.33;95436.19;4990117;28;20246;-68
2023/03/13 07:47:54;;;;;;;14.83;13.33;;;;;;;4.65;43.46;95424.69;4988034;28;20250;-68
2023/03/13 07:50:19;;;;;;;14.17;12.40;;;;;;;4.64;43.45;95428.25;4993239;28;20231;-68
2023/03/13 07:52:44;;;;;;;13.77;11.73;;;;;;;4.75;42.88;95433.56;4989403;28;20229;-68
2023/03/13 07:55:10;;;;;;;14.67;12.37;;;;;;;5.02;42.18;95429.97;4987553;28;20215;-66
2023/03/13 07:57:35;;;;;;;12.87;11.20;;;;;;;4.84;42.95;95425.13;4976115;28;20780;-67
2023/03/13 08:00:01;;;;;;;13.67;11.47;;;;;;;5.02;42.47;95419.53;4979397;28;20224;-67
2023/03/13 08:02:26;;;;;;;15.30;12.33;;;;;;;4.72;42.87;95418.13;4986895;28;20306;-67
2023/03/13 08:04:52;;;;;;;12.70;11.30;;;;;;;4.78;42.57;95412.50;4986298;28;20346;-67
2023/03/13 08:07:17;;;;;;;13.07;10.30;;;;;;;4.97;42.21;95413.81;4986344;28;20191;-67
2023/03/13 08:09:43;;;;;;;13.40;11.07;;;;;;;5.07;42.25;95404.41;4989052;28;20246;-67
2023/03/13 08:12:08;;;;;;;12.20;10.87;;;;;;;5.19;41.85;95411.38;4990522;28;20231;-67
2023/03/13 08:14:34;;;;;;;13.47;11.20;;;;;;;5.11;42.34;95410.25;4987418;28;20246;-69
2023/03/13 08:16:59;;;;;;;14.17;11.40;;;;;;;5.17;42.29;95402.00;4989109;28;20203;-69
2023/03/13 08:19:25;;;;;;;14.23;11.27;;;;;;;5.17;41.88;95397.59;4990958;28;20794;-67
2023/03/13 08:21:50;;;;;;;13.10;10.90;;;;;;;5.17;41.14;95402.81;4987764;28;20705;-67
2023/03/13 08:24:16;;;;;;;14.80;11.27;;;;;;;5.07;41.52;95404.41;4988035;28;20234;-65
2023/03/13 08:26:41;;;;;;;12.73;11.00;;;;;;;5.00;41.96;95418.84;4989100;28;20259;-60
2023/03/13 08:29:13;;;;;;;14.33;10.77;;;;;;;4.98;42.46;95408.50;4986321;28;20195;-60
2023/03/13 08:31:50;;;;;;;12.47;11.10;;;;;;;5.24;41.78;95406.66;4987844;28;20207;-65
2023/03/13 08:34:16;;;;;;;15.13;11.93;;;;;;;4.95;42.13;95419.16;4988905;28;20234;-63
2023/03/13 08:36:42;;;;;;;12.70;11.30;;;;;;;5.17;42.04;95418.47;4988368;28;20220;-61
2023/03/13 08:39:17;;;;;;;11.97;10.60;;;;;;;5.46;41.28;95415.56;4984766;28;20278;-60
2023/03/13 08:41:42;;;;;;;11.27;10.17;;;;;;;5.33;41.26;95423.41;4988279;28;20257;-64
2023/03/13 08:44:13;;;;;;;14.07;10.97;;;;;;;5.39;41.37;95424.75;4986850;28;20192;-63
2023/03/13 08:46:40;;;;;;;14.07;10.90;;;;;;;5.81;40.87;95417.38;4984523;28;20188;-60
2023/03/13 08:49:07;;;;;;;12.37;11.00;;;;;;;5.71;41.31;95418.03;5000439;28;20227;-60
2023/03/13 08:51:33;;;;;;;11.57;10.20;;;;;;;5.70;41.52;95405.94;4989269;28;20223;-60
2023/03/13 08:54:00;;;;;;;12.00;10.53;;;;;;;5.71;41.23;95406.75;4988274;28;20227;-60
2023/03/13 08:56:29;;;;;;;13.10;10.97;;;;;;;5.77;40.50;95408.91;4988904;28;20223;-64
2023/03/13 08:58:56;;;;;;;14.37;10.97;;;;;;;5.80;40.67;95400.88;4987438;28;20199;-63
2023/03/13 09:01:24;;;;;;;15.07;12.77;;;;;;;5.96;40.31;95406.66;4994455;28;20206;-61
2023/03/13 09:03:50;;;;;;;12.50;11.20;;;;;;;5.96;39.88;95396.22;4990497;28;20237;-62
2023/03/13 09:06:16;;;;;;;13.00;11.27;;;;;;;6.07;39.80;95395.41;4990032;28;20235;-61
2023/03/13 09:08:42;;;;;;;14.73;11.63;;;;;;;6.14;39.58;95394.00;4988860;28;20235;-60
2023/03/13 09:11:13;;;;;;;14.10;11.60;;;;;;;6.24;40.00;95401.16;4987030;28;20219;-61
2023/03/13 09:13:41;;;;;;;15.03;10.47;;;;;;;6.31;38.98;95400.56;4991558;28;20183;-61
2023/03/13 09:16:10;;;;;;;12.47;10.67;;;;;;;6.44;39.67;95404.84;4989573;28;20234;-61
2023/03/13 09:19:01;;;;;;;11.33;10.13;;;;;;;6.66;38.69;95401.44;4990138;28;20278;-61
2023/03/13 09:21:30;;;;;;;11.03;9.97;;;;;;;6.29;38.83;95393.78;4997121;28;20216;-61
2023/03/13 09:23:56;;;;;;;11.63;10.23;;;;;;;6.21;39.87;95390.94;4990623;28;20226;-60
2023/03/13 09:26:22;;;;;;;12.43;10.67;;;;;;;6.40;39.01;95393.81;4989418;28;20249;-63
2023/03/13 09:28:48;;;;;;;13.03;11.13;;;;;;;6.45;38.60;95389.06;4994164;28;20183;-62
2023/03/13 09:31:19;;;;;;;12.00;10.73;;;;;;;6.49;39.13;95393.09;4990187;28;20252;-63
2023/03/13 09:33:47;;;;;;;12.23;9.73;;;;;;;7.20;37.92;95396.28;4989288;28;20227;-63
2023/03/13 09:36:12;;;;;;;12.53;10.90;;;;;;;6.77;38.88;95389.19;4985901;28;20227;-61
2023/03/13 09:38:38;;;;;;;12.60;10.13;;;;;;;7.12;38.38;95400.47;5017986;28;20235;-64
2023/03/13 09:41:19;;;;;;;15.17;10.93;;;;;;;7.07;38.19;95401.63;4984093;28;20203;-62
2023/03/13 09:44:00;;;;;;;15.20;10.73;;;;;;;7.22;37.71;95402.22;4996023;28;20183;-66
2023/03/13 09:46:52;;;;;;;13.37;9.80;;;;;;;7.35;37.19;95394.25;4965133;28;20234;-65
2023/03/13 09:49:35;;;;;;;11.63;9.90;;;;;;;7.40;37.38;95384.19;4957860;28;20228;-66
2023/03/13 09:52:29;;;;;;;13.33;10.57;;;;;;;7.71;36.96;95389.59;4972933;28;20289;-62
2023/03/13 09:55:02;;;;;;;11.37;10.23;;;;;;;7.85;36.79;95384.03;4945035;28;20247;-62
2023/03/13 09:57:44;;;;;;;11.57;10.37;;;;;;;7.95;36.22;95384.13;4947455;28;20240;-66
2023/03/13 10:00:15;;;;;;;14.60;10.37;;;;;;;8.04;35.43;95372.88;4944348;28;20714;-65
2023/03/13 10:02:55;;;;;;;11.53;10.37;;;;;;;8.64;34.50;95372.31;4939062;28;20221;-64
2023/03/13 10:05:25;;;;;;;11.57;10.10;;;;;;;8.24;35.55;95371.22;4946268;28;20227;-64
2023/03/13 10:07:57;;;;;;;11.87;10.63;;;;;;;7.92;35.74;95374.72;4960743;28;20196;-64
2023/03/13 10:10:52;;;;;;;14.33;10.20;;;;;;;8.09;35.40;95370.72;4979955;28;20235;-65
2023/03/13 10:13:53;;;;;;;11.40;10.30;;;;;;;8.10;34.94;95371.53;4944226;28;20224;-63
2023/03/13 10:16:28;;;;;;;11.13;9.93;;;;;;;8.61;34.30;95368.16;4951072;28;20224;-65
2023/03/13 10:18:57;;;;;;;13.47;10.33;;;;;;;8.44;34.57;95355.63;4952044;28;20338;-67
2023/03/13 10:21:31;;;;;;;12.77;11.37;;;;;;;8.51;33.91;95348.94;4952792;28;20622;-67
2023/03/13 10:24:21;;;;;;;13.27;11.43;;;;;;;8.49;34.40;95346.41;4954105;28;20216;-66
2023/03/13 10:26:46;;;;;;;11.83;10.63;;;;;;;8.44;34.33;95342.53;4950535;28;20224;-66
2023/03/13 10:29:23;;;;;;;10.20;9.20;;;;;;;8.67;33.55;95338.78;4950399;28;20223;-66
2023/03/13 10:32:03;;;;;;;12.53;9.30;;;;;;;8.78;33.58;95322.13;4998471;28;20223;-66
2023/03/13 10:34:52;;;;;;;12.30;9.43;;;;;;;8.97;33.69;95318.72;5022776;28;20300;-66
2023/03/13 10:37:28;;;;;;;11.03;9.87;;;;;;;8.79;33.83;95318.53;4967224;28;20228;-66
2023/03/13 10:39:54;;;;;;;11.70;9.80;;;;;;;8.57;34.13;95317.75;4986527;28;20286;-66
2023/03/13 10:42:22;;;;;;;11.73;9.73;;;;;;;9.48;33.01;95317.69;4972950;28;20228;-66
2023/03/13 10:44:48;;;;;;;11.70;10.37;;;;;;;9.03;34.27;95310.31;4983547;28;20297;-66
2023/03/13 10:47:14;;;;;;;11.13;10.03;;;;;;;8.97;34.07;95306.44;5027026;28;20307;-66
2023/03/13 10:49:49;;;;;;;11.07;9.97;;;;;;;9.09;33.94;95301.91;4994790;28;20275;-67
2023/03/13 10:52:33;;;;;;;11.40;9.20;;;;;;;9.39;33.60;95308.03;4993820;28;20238;-67
2023/03/13 10:55:01;;;;;;;10.83;9.53;;;;;;;9.51;32.45;95301.66;4992297;28;20223;-67
2023/03/13 10:57:30;;;;;;;10.53;9.43;;;;;;;9.55;32.27;95299.59;4985607;28;20224;-66
2023/03/13 10:59:56;;;;;;;11.50;10.40;;;;;;;9.42;32.42;95297.25;4988369;28;20219;-66
2023/03/13 11:02:32;;;;;;;12.03;9.83;;;;;;;9.40;32.61;95301.78;5005178;28;20226;-66
2023/03/13 11:04:58;;;;;;;11.77;9.70;;;;;;;9.57;32.30;95284.53;4993513;28;20203;-66
2023/03/13 11:07:37;;;;;;;10.73;9.10;;;;;;;9.93;31.79;95281.16;4993129;28;20199;-64
2023/03/13 11:10:20;;;;;;;11.57;9.00;;;;;;;9.82;33.32;95277.88;4985746;28;20285;-69
2023/03/13 11:12:54;;;;;;;10.03;9.03;;;;;;;9.50;32.93;95271.13;4987205;28;20241;-69
2023/03/13 11:15:34;;;;;;;10.17;9.17;;;;;;;9.49;33.07;95266.88;4990111;28;20262;-66
2023/03/13 11:18:13;;;;;;;11.40;9.57;;;;;;;9.68;34.13;95266.03;5002955;28;20258;-64
2023/03/13 11:20:42;;;;;;;15.00;9.27;;;;;;;9.97;33.27;95271.22;4988669;28;20238;-65
2023/03/13 11:23:30;;;;;;;10.00;9.07;;;;;;;10.29;32.25;95260.38;4990083;28;20231;-63
2023/03/13 11:25:56;;;;;;;9.80;8.90;;;;;;;10.49;31.19;95255.84;4991042;28;20211;-64
2023/03/13 11:28:40;;;;;;;10.80;9.40;;;;;;;10.78;30.84;95254.88;4990106;28;20501;-63
2023/03/13 11:31:12;;;;;;;10.57;9.57;;;;;;;10.73;31.29;95241.34;4997480;28;20223;-63
2023/03/13 11:33:58;;;;;;;10.60;9.33;;;;;;;11.03;30.76;95243.63;4993490;28;20224;-63
2023/03/13 11:36:53;;;;;;;11.37;8.97;;;;;;;11.62;29.72;95230.84;4989341;28;20228;-65